Aviation Digital Data Service (ADDS)

Output produced by METARs form (0241 UTC 22 July 2017)
found at http://www.aviationweather.gov/adds/metars/
 
LCRA 220150Z 24004KT 9999 FEW017 25/22 Q1006 TEMPO SCT017
TAF LCRA 220129Z 2203/2221 22005KT 9999 FEW015 
     PROB40 2203/2206 SCT015
       
LCEN 220220Z 00000KT CAVOK 23/20 Q1007 NOSIG RMK RWY11 00000KT
TAF LCEN 211640Z 2118/2218 28012KT 9999 FEW025 
     TEMPO 2200/2203 VRB02KT 1500 BR BKN010 
     PROB30 
     TEMPO 2201/2204 0500 FG BKN005 
     TEMPO 2204/2206 3000 BR 
     BECMG 2206/2209 9999 FEW025
       
LCLK 220230Z 21004KT CAVOK 24/22 Q1007 NOSIG
TAF LCLK 212330Z 2200/2224 32006KT 9999 FEW025 
     PROB40 2200/2205 5000 BR BKN005 
     BECMG 2208/2211 22016KT 
     BECMG 2219/2222 30006KT
       
LCPH 220230Z 02005KT 9999 BKN015 23/19 Q1007
TAF LCPH 212330Z 2200/2224 02007KT 9999 FEW020 
     PROB40 2200/2205 BKN005 
     BECMG 2209/2212 28014KT 
     BECMG 2219/2222 35007KT
       
LCRA 220150Z 24004KT 9999 FEW017 25/22 Q1006 TEMPO SCT017
TAF LCRA 220129Z 2203/2221 22005KT 9999 FEW015 
     PROB40 2203/2206 SCT015
       
LCLK 220230Z 21004KT CAVOK 24/22 Q1007 NOSIG
TAF LCLK 212330Z 2200/2224 32006KT 9999 FEW025 
     PROB40 2200/2205 5000 BR BKN005 
     BECMG 2208/2211 22016KT 
     BECMG 2219/2222 30006KT
       
LCPH 220230Z 02005KT 9999 BKN015 23/19 Q1007
TAF LCPH 212330Z 2200/2224 02007KT 9999 FEW020 
     PROB40 2200/2205 BKN005 
     BECMG 2209/2212 28014KT 
     BECMG 2219/2222 35007KT